Time;durP1;ratioP1;P1;durP2;ratioP2;P2;SDS_P1;SDS_P2;PMS_P1;PMS_P2;Temp;Humidity;BMP_temperature;BMP_pressure;BME280_temperature;BME280_humidity;BME280_pressure;Samples;Min_cycle;Max_cycle;Signal;HPM_P1;HPM_P2
2021/06/11 00:02:05;;;;;;;33.63;24.67;;;20.00;99.90;;;20.50;73.65;101927.47;5095684;28;20048;-71
2021/06/11 00:04:33;;;;;;;34.65;26.05;;;20.00;99.90;;;20.47;73.98;101922.19;5114008;28;20039;-71
2021/06/11 00:07:00;;;;;;;32.38;24.25;;;20.00;99.90;;;20.47;74.07;101931.16;5113765;28;20126;-71
2021/06/11 00:09:29;;;;;;;34.17;25.58;;;20.00;99.90;;;20.47;74.17;101927.56;5113433;28;20116;-72
2021/06/11 00:11:56;;;;;;;35.80;26.80;;;20.00;99.90;;;20.33;74.75;101924.38;5113793;28;20108;-71
2021/06/11 00:14:25;;;;;;;42.20;27.95;;;19.90;99.90;;;20.36;75.17;101943.13;5113578;28;20040;-71
2021/06/11 00:16:52;;;;;;;41.65;30.00;;;19.90;99.90;;;20.40;75.12;101934.06;5095426;28;20055;-71
2021/06/11 00:19:22;;;;;;;35.15;26.70;;;19.90;99.90;;;20.40;75.21;101936.75;5113631;28;20071;-71
2021/06/11 00:21:50;;;;;;;41.15;29.33;;;19.90;99.90;;;20.30;75.58;101933.44;5113540;28;20048;-71
2021/06/11 00:24:18;;;;;;;41.53;31.00;;;19.80;99.90;;;20.36;75.67;101933.25;5113450;28;20058;-71
2021/06/11 00:26:46;;;;;;;39.88;29.20;;;19.80;99.90;;;19.76;75.68;101817.56;5113671;28;20179;-71
2021/06/11 00:29:14;;;;;;;43.30;30.42;;;19.90;99.90;;;20.42;75.66;101935.75;5094786;28;20047;-71
2021/06/11 00:31:43;;;;;;;39.78;29.75;;;19.90;99.90;;;20.40;75.71;101926.84;5113132;28;20823;-71
2021/06/11 00:34:11;;;;;;;38.17;28.60;;;19.90;99.90;;;20.39;75.78;101930.47;5113260;28;20047;-71
2021/06/11 00:36:40;;;;;;;39.22;29.88;;;19.90;99.90;;;20.30;75.86;101911.94;5113375;28;20055;-71
2021/06/11 00:39:08;;;;;;;38.63;29.02;;;19.90;99.90;;;20.33;75.93;101902.88;5113226;28;20051;-71
2021/06/11 00:41:36;;;;;;;39.08;29.80;;;19.90;99.90;;;20.28;76.18;101905.72;5112911;28;20378;-72
2021/06/11 00:44:05;;;;;;;37.22;29.17;;;19.90;99.90;;;20.30;76.45;101911.03;5094784;28;20055;-71
2021/06/11 00:46:33;;;;;;;41.45;29.45;;;19.80;99.90;;;20.17;76.57;101888.09;5112225;28;20429;-71
2021/06/11 00:49:01;;;;;;;34.22;27.63;;;19.80;99.90;;;20.27;76.72;101914.69;5113029;28;20047;-72
2021/06/11 00:51:29;;;;;;;34.78;26.95;;;19.80;99.90;;;20.32;76.45;101915.47;5112883;28;20051;-71
2021/06/11 00:53:58;;;;;;;31.98;26.00;;;19.80;99.90;;;20.39;76.14;101922.41;5112809;28;20059;-71
2021/06/11 00:56:27;;;;;;;34.22;26.67;;;19.90;99.90;;;19.98;75.97;101836.66;5094433;28;20459;-71
2021/06/11 00:58:55;;;;;;;32.00;26.63;;;19.90;99.90;;;20.33;76.04;101893.03;5112939;28;20055;-71
2021/06/11 01:01:23;;;;;;;32.80;27.30;;;19.90;99.90;;;20.40;76.30;101902.66;5112859;28;20489;-70
2021/06/11 01:03:51;;;;;;;37.60;27.77;;;19.90;99.90;;;20.40;76.57;101910.72;5094293;28;20138;-71
2021/06/11 01:06:20;;;;;;;37.50;28.17;;;19.90;99.90;;;20.38;76.67;101906.34;5112939;28;20051;-71
2021/06/11 01:08:49;;;;;;;36.78;28.63;;;19.90;99.90;;;20.24;76.90;101887.03;5112449;28;20036;-72
2021/06/11 01:11:23;;;;;;;38.47;29.75;;;19.90;99.90;;;20.37;76.62;101904.56;5094408;28;20052;-71
2021/06/11 01:13:52;;;;;;;37.00;29.15;;;19.90;99.90;;;20.32;76.73;101901.13;5112461;28;20051;-71
2021/06/11 01:16:20;;;;;;;37.58;28.52;;;19.90;99.90;;;20.27;76.86;101898.56;5094338;28;20366;-71
2021/06/11 01:18:48;;;;;;;35.90;28.42;;;19.80;99.90;;;20.28;76.78;101894.97;5112497;28;20055;-71
2021/06/11 01:21:19;;;;;;;35.15;28.00;;;19.80;99.90;;;20.28;76.76;101905.72;5094291;28;20566;-71
2021/06/11 01:24:06;;;;;;;;;;;19.80;99.90;;;20.33;76.47;101905.56;5112985;28;20184;-71
2021/06/11 01:26:38;;;;;;;33.13;25.80;;;19.90;99.90;;;20.37;76.27;101905.44;5094190;28;20365;-71
2021/06/11 01:29:09;;;;;;;33.20;25.17;;;19.90;99.90;;;20.29;76.20;101885.97;5112296;28;20112;-71
2021/06/11 01:31:46;;;;;;;32.47;25.88;;;20.00;99.90;;;20.47;76.01;101906.97;5112498;28;20046;-72
2021/06/11 01:34:19;;;;;;;33.00;25.30;;;20.00;99.90;;;20.33;76.15;101884.97;5112213;28;20075;-71
2021/06/11 01:36:53;;;;;;;32.25;24.63;;;20.00;99.90;;;20.49;75.80;101904.22;5113011;28;20043;-71
2021/06/11 01:39:23;;;;;;;33.88;25.23;;;20.00;99.90;;;20.43;75.99;101896.31;5112184;28;20122;-71
2021/06/11 01:41:54;;;;;;;32.90;25.15;;;20.00;99.90;;;20.29;76.13;101869.84;5112538;28;20126;-71
2021/06/11 01:44:26;;;;;;;35.42;26.25;;;20.00;99.90;;;20.43;76.27;101888.25;5112549;28;20096;-71
2021/06/11 01:46:58;;;;;;;45.13;31.45;;;20.00;99.90;;;20.42;76.36;101890.06;5112189;28;20131;-72
2021/06/11 01:49:27;;;;;;;47.08;32.80;;;19.90;99.90;;;20.41;76.37;101877.56;5112492;28;20056;-71
2021/06/11 01:51:58;;;;;;;45.40;30.88;;;19.90;99.90;;;20.42;76.52;101883.84;5112009;28;20067;-71
2021/06/11 01:54:27;;;;;;;45.80;31.75;;;19.90;99.90;;;20.31;76.53;101859.03;5090626;28;20562;-71
2021/06/11 01:56:57;;;;;;;41.90;30.83;;;20.00;99.90;;;20.37;76.83;101873.19;5091810;28;20093;-71
2021/06/11 01:59:26;;;;;;;42.78;29.92;;;19.90;99.90;;;20.36;76.73;101870.56;5096251;28;20048;-71
2021/06/11 02:01:56;;;;;;;41.65;29.67;;;19.90;99.90;;;20.33;76.75;101882.28;5094662;28;20048;-72
2021/06/11 02:04:24;;;;;;;37.33;28.00;;;19.90;99.90;;;20.30;76.92;101878.78;5094541;28;20048;-71
2021/06/11 02:06:53;;;;;;;40.67;29.92;;;19.80;99.90;;;20.29;76.88;101866.25;5096100;28;20481;-71
2021/06/11 02:09:22;;;;;;;37.50;28.00;;;19.80;99.90;;;19.63;77.00;101772.28;5095519;28;20078;-72
2021/06/11 02:11:51;;;;;;;39.92;30.52;;;19.80;99.90;;;20.22;77.69;101868.25;5095586;28;20070;-71
2021/06/11 02:14:21;;;;;;;43.92;31.85;;;19.70;99.90;;;20.26;77.66;101869.06;5095688;28;20044;-71
2021/06/11 02:16:50;;;;;;;;;;;19.70;99.90;;;20.24;77.83;101869.09;5095656;28;20044;-72
2021/06/11 02:19:21;;;;;;;50.65;35.70;;;19.80;99.90;;;20.29;77.92;101868.94;5111271;28;19969;-71
2021/06/11 02:21:50;;;;;;;56.10;36.50;;;19.80;99.90;;;20.22;78.26;101864.69;5095427;28;20101;-71
2021/06/11 02:24:19;;;;;;;57.13;38.60;;;19.80;99.90;;;20.16;78.82;101865.72;5095180;28;20101;-71
2021/06/11 02:26:48;;;;;;;65.13;43.00;;;19.80;99.90;;;19.97;79.16;101840.28;5095789;28;20040;-71
2021/06/11 02:29:17;;;;;;;73.60;44.83;;;19.70;99.90;;;19.84;80.42;101865.69;5095216;28;20068;-71
2021/06/11 02:31:47;;;;;;;75.03;47.50;;;19.50;99.90;;;19.66;81.02;101842.03;5095193;28;20051;-71
2021/06/11 02:34:15;;;;;;;69.22;43.97;;;19.40;99.90;;;19.74;81.48;101862.38;5095353;28;20043;-71
2021/06/11 02:36:43;;;;;;;70.15;45.10;;;19.40;99.90;;;19.74;81.54;101858.81;5095235;28;20495;-71
2021/06/11 02:39:11;;;;;;;71.88;45.47;;;19.40;99.90;;;19.65;82.16;101865.28;5095257;28;20410;-71
2021/06/11 02:41:44;;;;;;;61.13;41.45;;;19.30;99.90;;;19.56;82.02;101852.13;5095093;28;20388;-71
2021/06/11 02:44:13;;;;;;;56.00;39.00;;;19.30;99.90;;;19.72;81.89;101874.94;5095106;28;20443;-71
2021/06/11 02:46:48;;;;;;;54.30;38.47;;;19.30;99.90;;;19.69;81.55;101866.97;5095118;28;20052;-71
2021/06/11 02:49:23;;;;;;;60.25;42.17;;;19.30;99.90;;;19.66;81.63;101864.41;5094772;28;20085;-71
2021/06/11 02:51:54;;;;;;;63.95;44.90;;;19.30;99.90;;;19.76;81.53;101884.69;5094949;28;20066;-71
2021/06/11 02:54:26;;;;;;;71.05;47.22;;;19.30;99.90;;;19.75;81.43;101882.94;5103345;28;20105;-71
2021/06/11 02:56:58;;;;;;;63.55;44.08;;;19.30;99.90;;;19.72;81.59;101877.63;5096514;28;20047;-72
2021/06/11 02:59:32;;;;;;;70.68;48.30;;;19.30;99.90;;;19.71;81.69;101877.69;5096478;28;20055;-71
2021/06/11 03:02:07;;;;;;;72.03;49.63;;;19.30;99.90;;;19.69;81.68;101871.47;5115024;28;20104;-72
2021/06/11 03:04:40;;;;;;;64.45;47.45;;;19.20;99.90;;;19.63;81.59;101861.78;5115405;28;20055;-71
2021/06/11 03:07:10;;;;;;;69.57;50.45;;;19.20;99.90;;;19.66;81.56;101867.09;5096671;28;20052;-71
2021/06/11 03:09:41;;;;;;;69.53;51.75;;;19.20;99.90;;;19.51;81.43;101850.47;5114233;28;20039;-72
2021/06/11 03:12:10;;;;;;;;;;;19.20;99.90;;;19.58;81.36;101869.06;5115311;28;20050;-71
2021/06/11 03:14:39;;;;;;;72.68;51.33;;;19.20;99.90;;;19.59;81.66;101861.88;5096300;28;20380;-71
2021/06/11 03:17:10;;;;;;;77.53;52.75;;;19.20;99.90;;;19.54;81.65;101866.50;5114788;28;20051;-72
2021/06/11 03:19:42;;;;;;;80.40;51.83;;;19.20;99.90;;;19.62;81.57;101864.50;5114913;28;20058;-71
2021/06/11 03:22:14;;;;;;;74.18;49.08;;;19.20;99.90;;;19.58;81.76;101850.28;5114955;28;20055;-72
2021/06/11 03:24:51;;;;;;;69.68;46.95;;;19.20;99.90;;;19.66;81.68;101855.44;5114761;28;20050;-72
2021/06/11 03:27:24;;;;;;;66.88;45.47;;;19.20;99.90;;;19.65;81.54;101865.28;5114800;28;20511;-72
2021/06/11 03:29:57;;;;;;;58.55;41.40;;;19.20;99.90;;;19.44;81.39;101822.00;5114341;28;20051;-71
2021/06/11 03:32:31;;;;;;;44.67;34.70;;;19.30;99.90;;;19.75;81.24;101872.19;5114291;28;20154;-71
2021/06/11 03:35:04;;;;;;;40.05;30.38;;;19.30;99.90;;;19.76;81.12;101871.25;5114831;28;20047;-71
2021/06/11 03:37:33;;;;;;;37.50;30.55;;;19.30;99.90;;;19.73;80.95;101862.41;5114425;28;20061;-71
2021/06/11 03:40:06;;;;;;;38.55;30.58;;;19.30;99.90;;;19.75;80.84;101866.84;5114295;28;20063;-71
2021/06/11 03:42:37;;;;;;;34.00;28.00;;;19.30;99.90;;;19.75;80.62;101872.19;5114450;28;20097;-71
2021/06/11 03:45:07;;;;;;;34.17;28.52;;;19.40;99.90;;;19.72;80.85;101883.00;5096143;28;20472;-72
2021/06/11 03:47:39;;;;;;;30.58;27.23;;;19.30;99.90;;;19.79;80.57;101867.63;5114586;28;20047;-72
2021/06/11 03:50:09;;;;;;;37.25;30.75;;;19.30;99.90;;;19.74;80.63;101872.25;5114181;28;20253;-71
2021/06/11 03:52:40;;;;;;;38.20;31.75;;;19.30;99.90;;;19.77;80.75;101870.34;5114192;28;20120;-71
2021/06/11 03:55:14;;;;;;;;;;;19.30;99.90;;;19.75;80.90;101872.19;5096404;28;20083;-71
2021/06/11 03:57:48;;;;;;;39.20;32.45;;;19.30;99.90;;;19.76;80.73;101870.41;5114201;28;19924;-71
2021/06/11 04:00:19;;;;;;;40.38;30.23;;;19.40;99.90;;;19.87;80.84;101881.75;5113682;28;20113;-71
2021/06/11 04:02:49;;;;;;;31.73;27.45;;;19.40;99.90;;;19.79;80.98;101873.88;5114067;28;20067;-72
2021/06/11 04:05:17;;;;;;;31.70;27.15;;;19.30;99.90;;;19.91;80.83;101874.47;5113960;28;20051;-71
2021/06/11 04:07:52;;;;;;;33.20;27.48;;;19.40;99.90;;;19.84;80.77;101881.78;5113838;28;20127;-71
2021/06/11 04:10:29;;;;;;;31.85;26.05;;;19.40;99.90;;;19.76;81.12;101886.50;5113389;28;20054;-71
2021/06/11 04:13:03;;;;;;;37.03;28.52;;;19.30;99.90;;;19.71;81.15;101885.72;5113784;28;20044;-71
2021/06/11 04:15:35;;;;;;;35.50;28.88;;;19.30;99.90;;;19.75;81.30;101892.78;5113406;28;20492;-72
2021/06/11 04:18:10;;;;;;;32.55;26.23;;;19.30;99.90;;;19.73;81.48;101894.63;5113593;28;20047;-72
2021/06/11 04:20:41;;;;;;;37.90;27.02;;;19.30;99.90;;;19.59;81.86;101875.31;5095386;28;20492;-72
2021/06/11 04:23:10;;;;;;;32.40;25.80;;;19.20;99.90;;;19.58;82.04;101887.88;5095384;28;20066;-71
2021/06/11 04:25:39;;;;;;;33.42;25.83;;;19.10;99.90;;;19.66;82.10;101872.44;5113176;28;20032;-72
2021/06/11 04:28:11;;;;;;;34.35;26.65;;;19.10;99.90;;;19.68;81.89;101884.03;5113245;28;20070;-72
2021/06/11 04:30:39;;;;;;;37.38;27.98;;;19.20;99.90;;;19.65;82.04;101894.81;5095203;28;20086;-72
2021/06/11 04:33:21;;;;;;;37.13;27.63;;;19.20;99.90;;;19.65;82.16;101886.78;5113483;28;20067;-72
2021/06/11 04:35:50;;;;;;;39.42;28.10;;;19.20;99.90;;;19.64;82.26;101894.88;5095091;28;20112;-72
2021/06/11 04:38:19;;;;;;;38.20;28.65;;;19.20;99.90;;;19.58;82.47;101889.66;5113247;28;20085;-72
2021/06/11 04:40:47;;;;;;;37.58;28.50;;;19.20;99.90;;;19.61;82.89;101897.63;5113236;28;20043;-71
2021/06/11 04:43:17;;;;;;;39.65;27.73;;;19.10;99.90;;;19.68;82.57;101880.47;5113360;28;20047;-72
2021/06/11 04:45:45;;;;;;;36.72;28.17;;;19.20;99.90;;;19.60;82.96;101890.50;5112989;28;20551;-72
2021/06/11 04:48:13;;;;;;;37.53;27.63;;;19.20;99.90;;;19.62;83.10;101889.56;5112774;28;20048;-72
2021/06/11 04:50:43;;;;;;;36.70;27.77;;;19.20;99.90;;;19.64;83.18;101879.66;5113108;28;20079;-72
2021/06/11 04:53:11;;;;;;;41.77;28.30;;;19.20;99.90;;;19.66;83.09;101879.63;5112791;28;20039;-71
2021/06/11 04:55:39;;;;;;;38.88;27.60;;;19.20;99.90;;;19.62;83.21;101881.50;5113248;28;20055;-72
2021/06/11 04:58:06;;;;;;;39.22;30.75;;;19.20;99.90;;;18.94;83.22;101750.81;5094601;28;20453;-72
2021/06/11 05:00:35;;;;;;;39.13;29.67;;;19.20;99.90;;;19.70;83.28;101879.47;5112685;28;20047;-72
2021/06/11 05:03:03;;;;;;;40.92;30.08;;;19.20;99.90;;;19.66;83.54;101876.94;5112939;28;20050;-72
2021/06/11 05:05:31;;;;;;;38.40;29.00;;;19.20;99.90;;;19.68;83.46;101883.13;5113044;28;20039;-72
2021/06/11 05:08:00;;;;;;;38.30;29.33;;;19.20;99.90;;;19.68;83.49;101880.47;5112864;28;20044;-73
2021/06/11 05:10:28;;;;;;;37.88;30.02;;;19.20;99.90;;;19.67;83.66;101876.00;5112468;28;20577;-73
2021/06/11 05:12:56;;;;;;;36.83;29.08;;;19.20;99.90;;;19.70;83.41;101881.31;5112757;28;20047;-72
2021/06/11 05:15:24;;;;;;;31.73;26.95;;;19.30;99.90;;;19.68;83.49;101884.03;5112895;28;20047;-72
2021/06/11 05:17:52;;;;;;;33.78;26.15;;;19.30;99.90;;;19.75;83.50;101890.09;5094505;28;20147;-71
2021/06/11 05:20:21;;;;;;;30.17;25.45;;;19.30;99.90;;;19.77;83.48;101894.53;5112790;28;20044;-71
2021/06/11 05:22:49;;;;;;;32.15;25.00;;;19.30;99.90;;;19.80;83.42;101893.56;5112935;28;20842;-73
2021/06/11 05:25:18;;;;;;;29.48;24.13;;;19.30;99.90;;;19.82;83.01;101901.59;5112550;28;20043;-72
2021/06/11 05:27:46;;;;;;;27.85;21.85;;;19.40;99.90;;;19.68;82.96;101892.09;5112722;28;20044;-71
2021/06/11 05:30:16;;;;;;;30.17;23.95;;;19.30;99.90;;;19.77;82.88;101899.91;5112818;28;20055;-72
2021/06/11 05:32:46;;;;;;;29.77;24.20;;;19.30;99.90;;;19.67;83.00;101901.03;5115407;28;20047;-71
2021/06/11 05:35:14;;;;;;;27.88;23.80;;;19.30;99.90;;;19.73;83.21;101900.00;5098611;28;20051;-72
2021/06/11 05:37:42;;;;;;;31.70;22.85;;;19.30;99.90;;;19.74;82.91;101899.97;5116533;28;20051;-72
2021/06/11 05:40:12;;;;;;;27.35;22.55;;;19.30;99.90;;;19.82;82.81;101902.47;5116799;28;20047;-72
2021/06/11 05:42:42;;;;;;;26.55;21.23;;;19.30;99.90;;;19.73;82.84;101911.63;5098092;28;20051;-71
2021/06/11 05:45:10;;;;;;;24.85;21.55;;;19.30;99.90;;;19.74;83.05;101897.28;5116806;28;20051;-71
2021/06/11 05:47:38;;;;;;;25.20;21.13;;;19.30;99.90;;;19.16;83.10;101796.78;5116593;28;20130;-71
2021/06/11 05:50:09;;;;;;;27.50;22.02;;;19.30;99.90;;;19.65;83.49;101904.69;5116211;28;20051;-71
2021/06/11 05:52:37;;;;;;;;;;;19.20;99.90;;;19.73;83.40;101890.16;5098382;28;20515;-72
2021/06/11 05:55:07;;;;;;;30.42;24.17;;;19.30;99.90;;;19.79;83.34;101899.84;5116020;28;19919;-72
2021/06/11 05:57:35;;;;;;;31.13;24.98;;;19.30;99.90;;;19.77;83.34;101890.94;5116483;28;20069;-72
2021/06/11 06:00:06;;;;;;;33.25;25.20;;;19.30;99.90;;;19.81;83.59;101898.00;5115962;28;20380;-71
2021/06/11 06:02:34;;;;;;;28.25;22.90;;;19.40;99.90;;;19.78;83.96;101898.09;5116403;28;20413;-71
2021/06/11 06:05:03;;;;;;;26.92;20.90;;;19.30;99.90;;;19.77;83.71;101891.84;5116324;28;20455;-72
2021/06/11 06:07:31;;;;;;;26.42;21.08;;;19.30;99.90;;;19.75;83.89;101888.31;5116313;28;20039;-73
2021/06/11 06:09:59;;;;;;;26.08;21.77;;;19.30;99.90;;;19.80;83.94;101907.00;5115888;28;20051;-70
2021/06/11 06:12:27;;;;;;;24.65;20.60;;;19.40;99.90;;;19.84;84.08;101911.34;5115890;28;20104;-71
2021/06/11 06:14:55;;;;;;;26.13;20.90;;;19.40;99.90;;;19.85;84.11;101917.59;5097591;28;20139;-72
2021/06/11 06:17:24;;;;;;;26.27;21.02;;;19.40;99.90;;;19.85;84.10;101915.81;5116112;28;20044;-71
2021/06/11 06:19:52;;;;;;;25.33;19.20;;;19.40;99.90;;;19.86;83.91;101922.94;5115849;28;20397;-70
2021/06/11 06:22:37;;;;;;;22.60;17.25;;;19.40;99.90;;;19.92;83.70;101919.22;5116109;28;20063;-71
2021/06/11 06:25:08;;;;;;;19.75;15.77;;;19.50;99.90;;;19.93;82.92;101924.56;5115846;28;20047;-71
2021/06/11 06:27:37;;;;;;;19.20;15.25;;;19.50;99.90;;;19.88;82.96;101933.66;5115851;28;20488;-71
2021/06/11 06:30:07;;;;;;;22.13;14.98;;;19.50;99.90;;;19.79;82.58;101938.34;5115869;28;20043;-71
2021/06/11 06:32:37;;;;;;;18.02;15.60;;;19.40;99.90;;;19.69;82.82;101907.25;5115887;28;20078;-71
2021/06/11 06:35:08;;;;;;;21.80;16.35;;;19.40;99.90;;;19.87;82.75;101930.06;5115544;28;20377;-72
2021/06/11 06:37:36;;;;;;;19.40;16.10;;;19.40;99.90;;;19.85;82.68;101921.19;5115571;28;20373;-71
2021/06/11 06:40:07;;;;;;;18.75;16.55;;;19.40;99.90;;;19.84;82.87;101927.44;5115711;28;20455;-71
2021/06/11 06:42:35;;;;;;;;;;;19.40;99.90;;;19.83;82.88;101923.03;5115490;28;20051;-71
2021/06/11 06:45:04;;;;;;;24.48;19.58;;;19.40;99.90;;;19.76;82.81;101921.41;5096601;28;20273;-71
2021/06/11 06:47:34;;;;;;;31.95;24.73;;;19.30;99.90;;;19.76;82.64;101924.09;5115029;28;20493;-72
2021/06/11 06:50:05;;;;;;;24.95;20.23;;;19.30;99.90;;;19.71;82.63;101931.38;5115307;28;20051;-72
2021/06/11 06:52:33;;;;;;;24.08;20.83;;;19.30;99.90;;;19.72;82.89;101917.06;5115196;28;20108;-71
2021/06/11 06:55:01;;;;;;;21.08;16.83;;;19.30;99.90;;;19.73;82.96;101927.75;5114827;28;20086;-71
2021/06/11 06:57:29;;;;;;;18.92;16.52;;;19.30;99.90;;;19.70;82.94;101935.00;5115301;28;20043;-72
2021/06/11 06:59:57;;;;;;;18.02;15.68;;;19.30;99.90;;;19.79;82.91;101934.75;5115304;28;20047;-71
2021/06/11 07:02:25;;;;;;;19.15;15.57;;;19.30;99.90;;;19.85;82.81;101934.59;5115183;28;20039;-74
2021/06/11 07:04:53;;;;;;;17.58;14.93;;;19.40;99.90;;;19.85;82.91;101939.97;5114830;28;20039;-71
2021/06/11 07:07:22;;;;;;;20.73;15.95;;;19.40;99.90;;;19.86;83.08;101938.19;5114887;28;20437;-76
2021/06/11 07:09:50;;;;;;;18.50;15.10;;;19.40;99.90;;;19.98;82.81;101930.69;5114992;28;20047;-68
2021/06/11 07:12:18;;;;;;;25.45;16.52;;;19.50;99.90;;;19.92;82.40;101941.56;5115010;28;20047;-68
2021/06/11 07:14:46;;;;;;;19.52;16.92;;;19.50;99.90;;;19.96;82.25;101931.63;5115185;28;20043;-69
2021/06/11 07:17:14;;;;;;;20.58;17.02;;;19.50;99.90;;;20.04;82.51;101929.63;5114658;28;20116;-68
2021/06/11 07:19:42;;;;;;;18.83;16.45;;;19.60;99.90;;;19.44;82.01;101838.13;5114592;28;20036;-68
2021/06/11 07:22:10;;;;;;;19.15;16.48;;;19.50;99.90;;;19.93;82.34;101934.41;5115042;28;20441;-69
2021/06/11 07:24:40;;;;;;;19.23;16.90;;;19.50;99.90;;;19.98;82.43;101933.34;5114548;28;20055;-68
2021/06/11 07:27:09;;;;;;;19.10;16.27;;;19.50;99.90;;;19.98;82.52;101930.69;5115014;28;20104;-69
2021/06/11 07:29:43;;;;;;;17.92;15.05;;;19.60;99.90;;;20.08;82.17;101926.81;5114722;28;20510;-68
2021/06/11 07:32:11;;;;;;;21.00;16.35;;;19.70;99.90;;;20.09;82.03;101922.34;5114659;28;20079;-72
2021/06/11 07:34:41;;;;;;;18.85;15.13;;;19.70;99.90;;;20.05;82.23;101929.59;5114512;28;20067;-72
2021/06/11 07:37:10;;;;;;;18.65;15.30;;;19.70;99.90;;;20.02;82.20;101924.31;5114623;28;20112;-71
2021/06/11 07:39:39;;;;;;;19.25;15.23;;;19.60;99.90;;;20.13;82.47;101919.50;5114279;28;20050;-73
2021/06/11 07:42:10;;;;;;;17.92;15.18;;;19.70;99.90;;;20.09;82.01;101931.25;5114771;28;20043;-70
2021/06/11 07:44:38;;;;;;;16.63;14.73;;;19.70;99.90;;;20.21;82.09;101928.28;5114220;28;20039;-70
2021/06/11 07:47:06;;;;;;;15.65;13.95;;;19.70;99.90;;;20.11;81.96;101901.69;5114341;28;20139;-69
2021/06/11 07:49:34;;;;;;;17.20;14.40;;;19.80;99.90;;;20.16;81.99;101929.31;5095880;28;20088;-69
2021/06/11 07:52:03;;;;;;;16.48;12.73;;;19.70;99.90;;;20.17;81.94;101933.78;5114199;28;20077;-68
2021/06/11 07:54:32;;;;;;;15.38;13.40;;;19.70;99.90;;;20.21;82.04;101935.50;5095274;28;20089;-66
2021/06/11 07:57:02;;;;;;;17.23;15.13;;;19.80;99.90;;;20.08;81.85;101945.63;5114293;28;20101;-67
2021/06/11 07:59:30;;;;;;;15.18;13.57;;;19.70;99.90;;;20.05;81.92;101934.09;5095858;28;20051;-67
2021/06/11 08:01:58;;;;;;;16.20;14.13;;;19.70;99.90;;;20.12;81.79;101939.25;5114126;28;20100;-70
2021/06/11 08:04:26;;;;;;;16.33;13.40;;;19.70;99.90;;;20.10;81.74;101943.78;5114039;28;20051;-69
2021/06/11 08:06:54;;;;;;;15.77;13.75;;;19.70;99.90;;;20.18;81.38;101935.53;5113996;28;20043;-68
2021/06/11 08:09:22;;;;;;;16.75;14.70;;;19.70;99.90;;;20.28;81.37;101934.38;5113893;28;20541;-68
2021/06/11 08:11:50;;;;;;;16.55;13.98;;;19.80;99.90;;;20.28;81.20;101927.22;5113751;28;20100;-68
2021/06/11 08:14:23;;;;;;;17.10;14.65;;;19.90;99.90;;;20.29;81.33;101928.97;5113672;28;20039;-68
2021/06/11 08:16:51;;;;;;;20.50;17.45;;;19.90;99.90;;;20.29;81.05;101920.91;5095427;28;20139;-68
2021/06/11 08:19:20;;;;;;;18.90;15.82;;;19.90;99.90;;;20.40;81.03;101940.28;5095414;28;20068;-67
2021/06/11 08:21:47;;;;;;;18.45;14.70;;;20.00;99.90;;;20.53;81.05;101935.47;5113751;28;20044;-67
2021/06/11 08:24:15;;;;;;;16.60;14.48;;;20.10;99.90;;;20.68;80.67;101937.72;5113230;28;20500;-68
2021/06/11 08:26:44;;;;;;;15.93;13.27;;;20.30;99.90;;;20.70;80.08;101935.88;5113433;28;20435;-67
2021/06/11 08:29:12;;;;;;;17.33;15.15;;;20.40;99.90;;;20.66;79.58;101950.31;5113101;28;20043;-68
2021/06/11 08:31:44;;;;;;;17.90;16.00;;;20.30;99.90;;;20.68;79.45;101949.38;5113395;28;20427;-67
2021/06/11 08:34:12;;;;;;;20.85;15.07;;;20.30;99.90;;;20.76;79.56;101945.56;5113541;28;20058;-68
2021/06/11 08:36:40;;;;;;;18.88;14.00;;;20.30;99.90;;;20.73;79.46;101951.03;5113125;28;20043;-68
2021/06/11 08:39:08;;;;;;;15.82;13.38;;;20.30;99.90;;;20.78;79.45;101954.47;5095029;28;20116;-67
2021/06/11 08:41:36;;;;;;;15.07;13.48;;;20.30;99.90;;;20.74;79.41;101948.31;5113322;28;20097;-68
2021/06/11 08:44:07;;;;;;;18.30;13.65;;;20.30;99.90;;;20.75;79.65;101949.19;5094937;28;20081;-67
2021/06/11 08:46:35;;;;;;;;;;;20.30;99.90;;;20.79;79.57;101946.34;5113779;28;20073;-67
2021/06/11 08:49:05;;;;;;;15.38;13.77;;;20.30;99.90;;;20.78;79.42;101951.78;5113222;28;19951;-67
2021/06/11 08:51:33;;;;;;;14.40;12.90;;;20.30;99.90;;;20.73;79.72;101954.59;5113164;28;20096;-67
2021/06/11 08:54:01;;;;;;;17.63;15.77;;;20.30;99.90;;;20.61;79.94;101930.75;5094403;28;20493;-66
2021/06/11 08:56:29;;;;;;;16.65;14.88;;;20.30;99.90;;;20.66;79.77;101934.19;5113131;28;20047;-66
2021/06/11 08:58:57;;;;;;;17.58;15.15;;;20.40;99.90;;;20.80;79.58;101958.88;5113033;28;20068;-67
2021/06/11 09:01:25;;;;;;;19.25;17.17;;;20.40;99.90;;;20.83;79.49;101958.78;5112633;28;20050;-62
2021/06/11 09:03:53;;;;;;;17.08;15.30;;;20.40;99.90;;;21.01;79.23;101950.22;5112832;28;20035;-64
2021/06/11 09:06:23;;;;;;;15.80;14.20;;;20.50;99.90;;;21.02;78.76;101948.41;5112057;28;20074;-66
2021/06/11 09:08:54;;;;;;;16.27;14.52;;;20.60;99.90;;;21.14;78.78;101961.47;5112896;28;20047;-66
2021/06/11 09:11:25;;;;;;;17.65;15.63;;;20.70;99.90;;;21.04;78.31;101963.56;5112847;28;20108;-67
2021/06/11 09:14:03;;;;;;;18.02;15.75;;;20.70;99.90;;;21.10;78.07;101970.59;5094551;28;20397;-67
2021/06/11 09:16:43;;;;;;;18.40;15.35;;;20.70;99.90;;;21.13;78.11;101968.69;5112758;28;20082;-65
2021/06/11 09:19:17;;;;;;;18.50;16.50;;;20.70;99.90;;;21.02;78.28;101965.41;5112820;28;20075;-66
2021/06/11 09:21:48;;;;;;;19.65;15.93;;;20.60;99.90;;;21.07;78.29;101965.28;5112627;28;20412;-67
2021/06/11 09:24:23;;;;;;;18.52;16.65;;;20.60;99.90;;;21.03;77.94;101971.69;5112556;28;20442;-66
2021/06/11 09:27:06;;;;;;;20.55;16.98;;;20.60;99.90;;;21.04;78.09;101978.84;5112668;28;20097;-67
2021/06/11 09:29:36;;;;;;;17.10;15.30;;;20.60;99.90;;;21.01;78.21;101973.53;5112772;28;20049;-67
2021/06/11 09:32:21;;;;;;;19.45;16.45;;;20.70;99.90;;;21.00;78.08;101979.81;5112609;28;20080;-67
2021/06/11 09:34:52;;;;;;;18.17;16.27;;;20.70;99.90;;;20.98;78.30;101979.00;5112332;28;20101;-67
2021/06/11 09:37:26;;;;;;;18.45;16.55;;;20.60;99.90;;;20.89;77.96;101973.84;5094290;28;20054;-66
2021/06/11 09:39:56;;;;;;;20.90;17.42;;;20.60;99.90;;;20.72;78.37;101971.66;5112680;28;20047;-67
2021/06/11 09:42:27;;;;;;;20.17;17.58;;;20.30;99.90;;;20.75;78.89;101987.69;5112642;28;20077;-67
2021/06/11 09:45:02;;;;;;;19.33;15.05;;;20.30;99.90;;;20.69;79.08;101987.91;5112468;28;20051;-67
2021/06/11 09:47:36;;;;;;;20.02;14.55;;;20.30;99.90;;;20.76;78.72;101978.72;5112311;28;20514;-67
2021/06/11 09:50:11;;;;;;;16.35;14.02;;;20.40;99.90;;;20.52;78.95;101939.97;5112228;28;20481;-67
2021/06/11 09:53:06;;;;;;;16.27;14.57;;;20.40;99.90;;;20.69;79.11;101977.16;5112503;28;20100;-67
2021/06/11 09:55:39;;;;;;;16.00;13.48;;;20.30;99.90;;;20.68;78.71;101978.94;5093723;28;20519;-67
2021/06/11 09:58:17;;;;;;;16.33;14.57;;;20.30;99.90;;;20.72;78.54;101970.78;5112490;28;20047;-67
2021/06/11 10:00:51;;;;;;;18.27;15.07;;;20.40;99.90;;;20.55;78.56;101974.84;5112261;28;20107;-67
2021/06/11 10:03:26;;;;;;;17.85;15.13;;;20.30;99.90;;;20.65;78.77;101970.94;5112422;28;20082;-67
2021/06/11 10:06:00;;;;;;;16.13;13.32;;;20.30;99.90;;;20.68;78.65;101965.50;5112427;28;20052;-67
2021/06/11 10:08:31;;;;;;;15.90;14.02;;;20.30;99.90;;;20.82;78.65;101972.28;5112090;28;20044;-67
2021/06/11 10:11:01;;;;;;;19.45;16.45;;;20.40;99.90;;;20.60;78.43;101970.22;5112359;28;20397;-67
2021/06/11 10:13:30;;;;;;;19.30;17.25;;;20.30;99.90;;;20.56;78.75;101968.53;5112282;28;20054;-67